Wan Hai 273 — 9V7586 — position and weather

sailwx.info

Track history (hours):
 
Tides and Currents Weather Stations Pressure Air Temp Water Temp Dewpoint Dewpoint Depression Visibility Wind Speed Wind Dir Waves Ship Positions

Wan Hai 273

Last reported at 2016-Apr-26 13:12 UTC. Time now 2016-Apr-30 07:05 UTC.
Position N 34°30' E 138°25'.

Length 172 m; draft 7.3 m.

Type: Cargo ship. MMSI: 566406000.

Date/timePositionNaut miles runAvg speedWind from/ knotsBaromVisibWave heightAir tempDewpointWater temp
2016-Apr-26 13:12N 34°30' E 138°25'2916.5
2016-Apr-26 11:28N 34°33' E 138°60'1616.9
2016-Apr-26 10:31N 34°46' E 139°12'1816.3
2016-Apr-26 09:24N 34°59' E 139°27'1416.8
2016-Apr-26 08:33N 35°06' E 139°42'1212.1
2016-Apr-26 07:33N 35°18' E 139°44'9 8.6
2016-Apr-26 06:33N 35°27' E 139°41'0 0.0
2016-Apr-26 05:32N 35°27' E 139°41'0 0.0
2016-Apr-26 04:32N 35°27' E 139°41'0 0.0
2016-Apr-26 03:32N 35°27' E 139°41'0 0.0
2016-Apr-26 02:32N 35°27' E 139°41'0 0.0
2016-Apr-26 01:32N 35°27' E 139°41'0 0.0
2016-Apr-26 00:32N 35°27' E 139°41'0 0.0
2016-Apr-25 23:32N 35°27' E 139°41'0 0.0
2016-Apr-25 22:29N 35°27' E 139°41'0 0.1
2016-Apr-25 21:32N 35°27' E 139°41'0 0.0
2016-Apr-25 20:32N 35°27' E 139°41'0 0.0
2016-Apr-25 19:32N 35°27' E 139°41'0 0.0
2016-Apr-25 18:32N 35°27' E 139°41'0 0.0
2016-Apr-25 17:32N 35°27' E 139°41'0 0.0
2016-Apr-25 16:32N 35°27' E 139°41'0 0.0
2016-Apr-25 15:32N 35°27' E 139°41'0 0.0
2016-Apr-25 14:32N 35°27' E 139°41'4 3.9
2016-Apr-25 13:34N 35°26' E 139°45'10 9.7
2016-Apr-25 12:34N 35°36' E 139°47'0 0.3
2016-Apr-25 11:32N 35°36' E 139°46'0 0.0
2016-Apr-25 10:32N 35°36' E 139°46'0 0.0
2016-Apr-25 09:32N 35°36' E 139°46'0 0.0
2016-Apr-25 08:32N 35°36' E 139°46'0 0.0
2016-Apr-25 07:32N 35°36' E 139°46'0 0.0
2016-Apr-25 06:32N 35°36' E 139°46'0 0.0
2016-Apr-25 05:32N 35°36' E 139°46'0 0.0
2016-Apr-25 04:32N 35°36' E 139°46'0 0.0
2016-Apr-25 03:32N 35°36' E 139°46'0 0.1
2016-Apr-25 02:32N 35°36' E 139°46'0 0.1
2016-Apr-25 01:32N 35°36' E 139°46'0 0.0
2016-Apr-25 00:29N 35°36' E 139°46'0 0.0
2016-Apr-24 23:32N 35°36' E 139°46'0 0.0
2016-Apr-24 22:32N 35°36' E 139°46'8 8.0
2016-Apr-24 21:33N 35°30' E 139°52'1313.4
2016-Apr-24 20:33N 35°18' E 139°45'1111.2
2016-Apr-24 19:33N 35°07' E 139°46'1010.3
2016-Apr-24 18:33N 34°58' E 139°40'1616.2
2016-Apr-24 17:33N 34°43' E 139°32'1916.0
2016-Apr-24 16:20N 34°33' E 139°12'  
2016-Apr-22 00:18N 24°00' E 118°55'2320.7
2016-Apr-21 23:12N 23°48' E 118°34'1720.4
2016-Apr-21 22:22N 23°36' E 118°20'2520.1
2016-Apr-21 21:07N 23°22' E 117°57'20018.9
2016-Apr-21 10:33N 22°19' E 114°31'1914.0
2016-Apr-21 09:10N 22°34' E 114°19'3 5.1
2016-Apr-21 08:33N 22°34' E 114°15'0 0.0
2016-Apr-21 07:16N 22°34' E 114°15'13 1.0
2016-Apr-20 18:28N 22°28' E 114°28'1415.3
2016-Apr-20 17:33N 22°14' E 114°26'1413.0
2016-Apr-20 16:30N 22°07' E 114°13'1313.4
2016-Apr-20 15:33N 22°18' E 114°06'11 0.6
2016-Apr-19 21:32N 22°22' E 113°55'9 9.3
2016-Apr-19 20:33N 22°19' E 114°04'0 0.1
2016-Apr-19 19:32N 22°19' E 114°04'0 0.0
2016-Apr-19 18:32N 22°19' E 114°04'0 0.0
2016-Apr-19 17:32N 22°19' E 114°04'3 3.3
2016-Apr-19 16:33N 22°20' E 114°07'0 0.0
2016-Apr-19 09:09N 22°20' E 114°07'2 3.5
2016-Apr-19 08:33N 22°19' E 114°06'1210.1
2016-Apr-19 07:20N 22°09' E 114°14'810.7
2016-Apr-19 06:34N 22°04' E 114°21'  
Track history (hours):
 
Tides and Currents Weather Stations Pressure Air Temp Water Temp Dewpoint Dewpoint Depression Visibility Wind Speed Wind Dir Waves Ship Positions

Wan Hai 273

Last reported at 2016-Apr-26 13:12 UTC. Time now 2016-Apr-30 07:05 UTC.
Position N 34°30' E 138°25'.

Length 172 m; draft 7.3 m.

Type: Cargo ship. MMSI: 566406000.

Date/timePositionNaut miles runAvg speedWind from/ knotsBaromVisibWave heightAir tempDewpointWater temp
2016-Apr-26 13:12N 34°30' E 138°25'2916.5
2016-Apr-26 11:28N 34°33' E 138°60'1616.9
2016-Apr-26 10:31N 34°46' E 139°12'1816.3
2016-Apr-26 09:24N 34°59' E 139°27'1416.8
2016-Apr-26 08:33N 35°06' E 139°42'1212.1
2016-Apr-26 07:33N 35°18' E 139°44'9 8.6
2016-Apr-26 06:33N 35°27' E 139°41'0 0.0
2016-Apr-26 05:32N 35°27' E 139°41'0 0.0
2016-Apr-26 04:32N 35°27' E 139°41'0 0.0
2016-Apr-26 03:32N 35°27' E 139°41'0 0.0
2016-Apr-26 02:32N 35°27' E 139°41'0 0.0
2016-Apr-26 01:32N 35°27' E 139°41'0 0.0
2016-Apr-26 00:32N 35°27' E 139°41'0 0.0
2016-Apr-25 23:32N 35°27' E 139°41'0 0.0
2016-Apr-25 22:29N 35°27' E 139°41'0 0.1
2016-Apr-25 21:32N 35°27' E 139°41'0 0.0
2016-Apr-25 20:32N 35°27' E 139°41'0 0.0
2016-Apr-25 19:32N 35°27' E 139°41'0 0.0
2016-Apr-25 18:32N 35°27' E 139°41'0 0.0
2016-Apr-25 17:32N 35°27' E 139°41'0 0.0
2016-Apr-25 16:32N 35°27' E 139°41'0 0.0
2016-Apr-25 15:32N 35°27' E 139°41'0 0.0
2016-Apr-25 14:32N 35°27' E 139°41'4 3.9
2016-Apr-25 13:34N 35°26' E 139°45'10 9.7
2016-Apr-25 12:34N 35°36' E 139°47'0 0.3
2016-Apr-25 11:32N 35°36' E 139°46'0 0.0
2016-Apr-25 10:32N 35°36' E 139°46'0 0.0
2016-Apr-25 09:32N 35°36' E 139°46'0 0.0
2016-Apr-25 08:32N 35°36' E 139°46'0 0.0
2016-Apr-25 07:32N 35°36' E 139°46'0 0.0
2016-Apr-25 06:32N 35°36' E 139°46'0 0.0
2016-Apr-25 05:32N 35°36' E 139°46'0 0.0
2016-Apr-25 04:32N 35°36' E 139°46'0 0.0
2016-Apr-25 03:32N 35°36' E 139°46'0 0.1
2016-Apr-25 02:32N 35°36' E 139°46'0 0.1
2016-Apr-25 01:32N 35°36' E 139°46'0 0.0
2016-Apr-25 00:29N 35°36' E 139°46'0 0.0
2016-Apr-24 23:32N 35°36' E 139°46'0 0.0
2016-Apr-24 22:32N 35°36' E 139°46'8 8.0
2016-Apr-24 21:33N 35°30' E 139°52'1313.4
2016-Apr-24 20:33N 35°18' E 139°45'1111.2
2016-Apr-24 19:33N 35°07' E 139°46'1010.3
2016-Apr-24 18:33N 34°58' E 139°40'1616.2
2016-Apr-24 17:33N 34°43' E 139°32'1916.0
2016-Apr-24 16:20N 34°33' E 139°12'  
2016-Apr-22 00:18N 24°00' E 118°55'2320.7
2016-Apr-21 23:12N 23°48' E 118°34'1720.4
2016-Apr-21 22:22N 23°36' E 118°20'2520.1
2016-Apr-21 21:07N 23°22' E 117°57'20018.9
2016-Apr-21 10:33N 22°19' E 114°31'1914.0
2016-Apr-21 09:10N 22°34' E 114°19'3 5.1
2016-Apr-21 08:33N 22°34' E 114°15'0 0.0
2016-Apr-21 07:16N 22°34' E 114°15'13 1.0
2016-Apr-20 18:28N 22°28' E 114°28'1415.3
2016-Apr-20 17:33N 22°14' E 114°26'1413.0
2016-Apr-20 16:30N 22°07' E 114°13'1313.4
2016-Apr-20 15:33N 22°18' E 114°06'11 0.6
2016-Apr-19 21:32N 22°22' E 113°55'9 9.3
2016-Apr-19 20:33N 22°19' E 114°04'0 0.1
2016-Apr-19 19:32N 22°19' E 114°04'0 0.0
2016-Apr-19 18:32N 22°19' E 114°04'0 0.0
2016-Apr-19 17:32N 22°19' E 114°04'3 3.3
2016-Apr-19 16:33N 22°20' E 114°07'0 0.0
2016-Apr-19 09:09N 22°20' E 114°07'2 3.5
2016-Apr-19 08:33N 22°19' E 114°06'1210.1
2016-Apr-19 07:20N 22°09' E 114°14'810.7
2016-Apr-19 06:34N 22°04' E 114°21'  

Dump ship's entire track history